Time;durP1;ratioP1;P1;durP2;ratioP2;P2;SDS_P1;SDS_P2;PMS_P1;PMS_P2;Temp;Humidity;BMP_temperature;BMP_pressure;BME280_temperature;BME280_humidity;BME280_pressure;Samples;Min_cycle;Max_cycle;Signal;HPM_P1;HPM_P2
2022/06/24 00:00:55;;;;;;;;;;;25.80;99.90;;;;;;5104216;28;19908;-65
2022/06/24 00:03:20;;;;;;;;;;;25.70;99.90;;;;;;5109343;28;20282;-64
2022/06/24 00:05:47;;;;;;;;;;;25.70;99.90;;;;;;5110951;28;20349;-64
2022/06/24 00:08:13;;;;;;;;;;;25.60;99.90;;;;;;5105900;28;19908;-65
2022/06/24 00:10:39;;;;;;;;;;;25.60;99.90;;;;;;5107574;28;20260;-65
2022/06/24 00:13:05;;;;;;;;;;;25.60;99.90;;;;;;5105462;28;19915;-64
2022/06/24 00:15:34;;;;;;;;;;;25.60;99.90;;;;;;5111215;27;19965;-64
2022/06/24 00:18:13;;;;;;;;;;;25.60;99.90;;;;;;5101971;28;19977;-64
2022/06/24 00:20:43;;;;;;;;;;;25.60;99.90;;;;;;5104863;28;20833;-65
2022/06/24 00:23:08;;;;;;;;;;;25.60;99.90;;;;;;5107953;28;20365;-65
2022/06/24 00:25:36;;;;;;;;;;;25.60;99.90;;;;;;5096385;28;19996;-65
2022/06/24 00:28:07;;;;;;;;;;;25.70;99.90;;;;;;5101308;28;20352;-65
2022/06/24 00:30:41;;;;;;;;;;;25.60;99.90;;;;;;5106745;28;19914;-64
2022/06/24 00:33:08;;;;;;;;;;;25.60;99.90;;;;;;5102091;28;19951;-66
2022/06/24 00:35:40;;;;;;;;;;;25.60;99.90;;;;;;5104516;28;19919;-64
2022/06/24 00:38:22;;;;;;;;;;;25.50;99.90;;;;;;5103481;28;19994;-64
2022/06/24 00:40:49;;;;;;;;;;;25.40;99.90;;;;;;5105604;28;19915;-65
2022/06/24 00:43:26;;;;;;;;;;;25.40;99.90;;;;;;5103888;28;19908;-65
2022/06/24 00:45:56;;;;;;;;;;;25.40;99.90;;;;;;5105318;28;19912;-65
2022/06/24 00:48:24;;;;;;;;;;;25.50;99.90;;;;;;5103676;28;19918;-64
2022/06/24 00:50:51;;;;;;;;;;;25.40;99.90;;;;;;5100487;28;19908;-65
2022/06/24 00:53:17;;;;;;;;;;;25.40;99.90;;;;;;5100673;28;20020;-65
2022/06/24 00:55:45;;;;;;;;;;;25.30;99.90;;;;;;5101093;28;19946;-65
2022/06/24 00:58:15;;;;;;;;;;;25.30;99.90;;;;;;5101081;28;19911;-64
2022/06/24 01:00:43;;;;;;;;;;;25.30;99.90;;;;;;5099466;28;19923;-64
2022/06/24 01:03:11;;;;;;;;;;;25.20;99.90;;;;;;5101727;28;19914;-64
2022/06/24 01:05:37;;;;;;;;;;;25.30;99.90;;;;;;5097328;28;19920;-65
2022/06/24 01:08:10;;;;;;;;;;;25.30;99.90;;;;;;5099563;28;19915;-65
2022/06/24 01:10:37;;;;;;;;;;;25.30;99.90;;;;;;5100466;28;19907;-66
2022/06/24 01:13:03;;;;;;;;;;;25.30;99.90;;;;;;5102034;28;19907;-65
2022/06/24 01:15:28;;;;;;;;;;;25.30;99.90;;;;;;5102402;28;19930;-66
2022/06/24 01:17:54;;;;;;;;;;;25.30;99.90;;;;;;5102864;28;19912;-65
2022/06/24 01:20:20;;;;;;;;;;;25.30;99.90;;;;;;5107926;28;19912;-65
2022/06/24 01:22:45;;;;;;;;;;;25.30;99.90;;;;;;5103318;28;19908;-65
2022/06/24 01:25:11;;;;;;;;;;;25.20;99.90;;;;;;5106701;28;20279;-65
2022/06/24 01:27:38;;;;;;;;;;;25.20;99.90;;;;;;5099652;28;19914;-65
2022/06/24 01:30:04;;;;;;;;;;;25.20;99.90;;;;;;5102120;28;19964;-65
2022/06/24 01:32:29;;;;;;;;;;;25.30;99.90;;;;;;5105566;28;19911;-65
2022/06/24 01:34:56;;;;;;;;;;;25.30;99.90;;;;;;5107746;28;20361;-65
2022/06/24 01:37:22;;;;;;;;;;;25.30;99.90;;;;;;5108341;28;19947;-64
2022/06/24 01:39:48;;;;;;;;;;;25.30;99.90;;;;;;5103899;28;19911;-65
2022/06/24 01:42:14;;;;;;;;;;;25.30;99.90;;;;;;5093648;28;19911;-64
2022/06/24 01:44:39;;;;;;;;;;;25.30;99.90;;;;;;5104320;28;19911;-65
2022/06/24 01:47:05;;;;;;;;;;;25.30;99.90;;;;;;5108158;28;19911;-65
2022/06/24 01:49:31;;;;;;;;;;;25.30;99.90;;;;;;5108511;28;19912;-64
2022/06/24 01:52:01;;;;;;;;;;;25.20;99.90;;;;;;5104778;28;21806;-65
2022/06/24 01:54:27;;;;;;;;;;;25.20;99.90;;;;;;5109260;28;20266;-65
2022/06/24 01:56:56;;;;;;;;;;;25.10;99.90;;;;;;5110271;28;19918;-65
2022/06/24 01:59:21;;;;;;;;;;;25.10;99.90;;;;;;5107345;28;19915;-66
2022/06/24 02:01:47;;;;;;;;;;;25.10;99.90;;;;;;5105000;28;19916;-65
2022/06/24 02:04:13;;;;;;;;;;;25.10;99.90;;;;;;5109014;28;19914;-65
2022/06/24 02:06:39;;;;;;;;;;;25.20;99.90;;;;;;5110295;28;20381;-65
2022/06/24 02:09:05;;;;;;;;;;;25.30;99.90;;;;;;5110526;28;19972;-65
2022/06/24 02:14:15;;;;;;;;;;;25.20;99.90;;;;;;5107046;28;20422;-65
2022/06/24 02:16:41;;;;;;;;;;;25.20;99.90;;;;;;5102605;28;19973;-64
2022/06/24 02:19:07;;;;;;;;;;;25.30;99.90;;;;;;5111199;28;20002;-65
2022/06/24 02:21:33;;;;;;;;;;;25.30;99.90;;;;;;5108405;28;20011;-64
2022/06/24 02:23:59;;;;;;;;;;;25.30;99.90;;;;;;5107258;28;19915;-65
2022/06/24 02:26:25;;;;;;;;;;;25.20;99.90;;;;;;5111024;28;20422;-66
2022/06/24 02:28:51;;;;;;;;;;;25.30;99.90;;;;;;5105767;28;20534;-65
2022/06/24 02:31:17;;;;;;;;;;;25.30;99.90;;;;;;5105645;28;19972;-67
2022/06/24 02:33:43;;;;;;;;;;;25.30;99.90;;;;;;5109214;28;20494;-67
2022/06/24 02:36:08;;;;;;;;;;;25.20;99.90;;;;;;5105131;28;19912;-67
2022/06/24 02:38:34;;;;;;;;;;;25.10;99.90;;;;;;5109552;28;19911;-65
2022/06/24 02:41:00;;;;;;;;;;;24.90;99.90;;;;;;5107527;28;20401;-67
2022/06/24 02:43:26;;;;;;;;;;;24.80;99.90;;;;;;5103699;28;19976;-65
2022/06/24 02:45:57;;;;;;;;;;;24.70;99.90;;;;;;5111015;28;19920;-67
2022/06/24 02:48:23;;;;;;;;;;;24.60;99.90;;;;;;5109999;28;20383;-65
2022/06/24 02:50:53;;;;;;;;;;;24.60;99.90;;;;;;5104757;28;20082;-67
2022/06/24 02:53:19;;;;;;;;;;;24.60;99.90;;;;;;5106983;28;20274;-67
2022/06/24 02:55:46;;;;;;;;;;;24.60;99.90;;;;;;5108539;28;19943;-66
2022/06/24 02:58:12;;;;;;;;;;;24.70;99.90;;;;;;5105402;28;20378;-66
2022/06/24 03:00:44;;;;;;;;;;;24.70;99.90;;;;;;5107333;28;19967;-67
2022/06/24 03:03:11;;;;;;;;;;;24.70;99.90;;;;;;5103006;28;19916;-67
2022/06/24 03:05:36;;;;;;;;;;;24.70;99.90;;;;;;5104414;28;19912;-67
2022/06/24 03:08:02;;;;;;;;;;;24.60;99.90;;;;;;5112585;28;19903;-67
2022/06/24 03:10:28;;;;;;;;;;;24.60;99.90;;;;;;5106997;28;19911;-67
2022/06/24 03:12:53;;;;;;;;;;;24.60;99.90;;;;;;5104498;28;20029;-66
2022/06/24 03:15:19;;;;;;;;;;;24.60;99.90;;;;;;5102937;28;19912;-67
2022/06/24 03:17:45;;;;;;;;;;;24.60;99.90;;;;;;5100837;28;19908;-66
2022/06/24 03:20:10;;;;;;;;;;;24.70;99.90;;;;;;5105726;28;19934;-66
2022/06/24 03:22:36;;;;;;;;;;;24.80;99.90;;;;;;5106768;28;19931;-65
2022/06/24 03:25:06;;;;;;;;;;;24.70;99.90;;;;;;5094130;28;20380;-67
2022/06/24 03:27:32;;;;;;;;;;;24.60;99.90;;;;;;5106298;28;19975;-65
2022/06/24 03:29:58;;;;;;;;;;;24.60;99.90;;;;;;5100108;28;19933;-66
2022/06/24 03:32:23;;;;;;;;;;;24.60;99.90;;;;;;5105213;28;19951;-65
2022/06/24 03:34:49;;;;;;;;;;;24.60;99.90;;;;;;5096949;28;19965;-66
2022/06/24 03:37:15;;;;;;;;;;;24.60;99.90;;;;;;5103315;28;20016;-65
2022/06/24 03:39:40;;;;;;;;;;;24.60;99.90;;;;;;5103385;28;19907;-65
2022/06/24 03:42:06;;;;;;;;;;;24.60;99.90;;;;;;5107033;28;19907;-64
2022/06/24 03:44:31;;;;;;;;;;;24.60;99.90;;;;;;5103273;28;19954;-66
2022/06/24 03:46:57;;;;;;;;;;;24.70;99.90;;;;;;5100823;28;19912;-66
2022/06/24 03:49:23;;;;;;;;;;;24.80;99.90;;;;;;5110295;28;19923;-66
2022/06/24 03:51:49;;;;;;;;;;;24.80;99.90;;;;;;5107149;28;20427;-65
2022/06/24 03:54:15;;;;;;;;;;;24.90;99.90;;;;;;5109981;28;20336;-67
2022/06/24 03:56:41;;;;;;;;;;;25.00;99.90;;;;;;5106801;28;19911;-66
2022/06/24 03:59:07;;;;;;;;;;;25.00;99.90;;;;;;5094921;28;19959;-67
2022/06/24 04:01:33;;;;;;;;;;;24.90;99.90;;;;;;5097705;28;19919;-66
2022/06/24 04:03:59;;;;;;;;;;;24.90;99.90;;;;;;5098817;28;19908;-67
2022/06/24 04:06:25;;;;;;;;;;;25.00;99.90;;;;;;5098644;28;19915;-66
2022/06/24 04:08:52;;;;;;;;;;;24.90;99.90;;;;;;5097889;28;20360;-65
2022/06/24 04:11:18;;;;;;;;;;;24.90;99.90;;;;;;5099018;28;19951;-66
2022/06/24 04:13:44;;;;;;;;;;;25.00;99.90;;;;;;5097139;28;19951;-66
2022/06/24 04:16:11;;;;;;;;;;;25.00;99.90;;;;;;5096569;28;19911;-66
2022/06/24 04:18:37;;;;;;;;;;;24.90;99.90;;;;;;5095882;28;19912;-66
2022/06/24 04:21:09;;;;;;;;;;;25.00;99.90;;;;;;5111281;28;19911;-66
2022/06/24 04:23:35;;;;;;;;;;;25.00;99.90;;;;;;5111763;28;19923;-66
2022/06/24 04:26:01;;;;;;;;;;;24.90;99.90;;;;;;5085207;28;21969;-68
2022/06/24 04:28:27;;;;;;;;;;;25.00;99.90;;;;;;5104954;28;20019;-66
2022/06/24 04:30:56;;;;;;;;;;;25.10;99.90;;;;;;5105136;28;19954;-67
2022/06/24 04:33:22;;;;;;;;;;;25.10;99.90;;;;;;5103009;28;19998;-66
2022/06/24 04:35:48;;;;;;;;;;;25.20;99.90;;;;;;5103587;28;19963;-65
2022/06/24 04:38:14;;;;;;;;;;;25.30;99.90;;;;;;5096472;28;19914;-66
2022/06/24 04:40:40;;;;;;;;;;;25.40;99.90;;;;;;5107464;28;19907;-68
2022/06/24 04:43:05;;;;;;;;;;;25.20;99.90;;;;;;5108339;28;20457;-65
2022/06/24 04:45:31;;;;;;;;;;;25.10;99.90;;;;;;5103408;28;19955;-65
2022/06/24 04:47:58;;;;;;;;;;;25.10;99.90;;;;;;5107758;28;19915;-66
2022/06/24 04:50:23;;;;;;;;;;;25.30;99.90;;;;;;5110031;28;20428;-67
2022/06/24 04:52:49;;;;;;;;;;;25.30;99.90;;;;;;5108601;28;19986;-66
2022/06/24 04:55:14;;;;;;;;;;;25.20;99.90;;;;;;5103110;28;19908;-66
2022/06/24 04:57:40;;;;;;;;;;;25.30;99.90;;;;;;5103546;28;19908;-66
2022/06/24 05:00:06;;;;;;;;;;;25.40;99.90;;;;;;5105366;28;19907;-65
2022/06/24 05:02:32;;;;;;;;;;;25.40;99.90;;;;;;5101460;28;19920;-67
2022/06/24 05:04:57;;;;;;;;;;;25.50;99.90;;;;;;5108730;28;19907;-67
2022/06/24 05:07:23;;;;;;;;;;;25.50;99.90;;;;;;5104411;28;19908;-66
2022/06/24 05:09:49;;;;;;;;;;;25.50;99.90;;;;;;5107008;28;19908;-67
2022/06/24 05:12:14;;;;;;;;;;;25.70;99.90;;;;;;5107183;28;19915;-67
2022/06/24 05:14:40;;;;;;;;;;;25.60;99.90;;;;;;5104336;28;19973;-67
2022/06/24 05:17:06;;;;;;;;;;;25.60;99.90;;;;;;5099230;28;19910;-66
2022/06/24 05:19:31;;;;;;;;;;;25.70;99.90;;;;;;5108401;28;19991;-67
2022/06/24 05:21:57;;;;;;;;;;;25.70;99.90;;;;;;5104618;28;19990;-67
2022/06/24 05:24:23;;;;;;;;;;;25.80;99.90;;;;;;5103647;28;19998;-64
2022/06/24 05:26:48;;;;;;;;;;;25.90;99.90;;;;;;5103156;28;19959;-63
2022/06/24 05:29:14;;;;;;;;;;;26.00;99.90;;;;;;5098291;28;20389;-63
2022/06/24 05:31:40;;;;;;;;;;;26.10;99.90;;;;;;5108360;28;20289;-64
2022/06/24 05:34:09;;;;;;;;;;;26.20;99.90;;;;;;5107255;28;20265;-63
2022/06/24 05:36:35;;;;;;;;;;;26.40;99.90;;;;;;5112924;28;19943;-63
2022/06/24 05:39:05;;;;;;;;;;;26.40;99.90;;;;;;5104033;28;19954;-63
2022/06/24 05:41:31;;;;;;;;;;;26.40;99.90;;;;;;5106540;28;19908;-63
2022/06/24 05:43:56;;;;;;;;;;;26.50;99.90;;;;;;5129470;27;19915;-64
2022/06/24 05:46:22;;;;;;;;;;;26.50;99.90;;;;;;5101738;28;20257;-63
2022/06/24 05:48:48;;;;;;;;;;;26.50;99.90;;;;;;5103181;28;19908;-64
2022/06/24 05:51:18;;;;;;;;;;;26.60;99.90;;;;;;5112013;28;19988;-64
2022/06/24 05:56:29;;;;;;;;;;;26.70;99.90;;;;;;5108109;28;19994;-64
2022/06/24 05:58:54;;;;;;;;;;;26.80;99.90;;;;;;5110751;28;20281;-64
2022/06/24 06:01:20;;;;;;;;;;;26.90;99.90;;;;;;5105375;28;19992;-64
2022/06/24 06:03:47;;;;;;;;;;;27.00;99.90;;;;;;5110545;28;20382;-64
2022/06/24 06:06:13;;;;;;;;;;;27.10;99.90;;;;;;5112842;28;20011;-63
2022/06/24 06:08:39;;;;;;;;;;;27.20;99.90;;;;;;5112705;28;19943;-62
2022/06/24 06:11:11;;;;;;;;;;;27.20;99.90;;;;;;5110932;28;19911;-64
2022/06/24 06:13:38;;;;;;;;;;;27.30;99.90;;;;;;5112483;28;19937;-64
2022/06/24 06:16:03;;;;;;;;;;;27.30;99.90;;;;;;5110080;28;19908;-64
2022/06/24 06:18:29;;;;;;;;;;;27.40;99.90;;;;;;5094096;28;19914;-64
2022/06/24 06:20:59;;;;;;;;;;;27.40;99.90;;;;;;5112484;28;19903;-64
2022/06/24 06:23:24;;;;;;;;;;;27.50;99.90;;;;;;5111369;28;20354;-63
2022/06/24 06:25:50;;;;;;;;;;;27.50;99.90;;;;;;5112245;28;19933;-63
2022/06/24 06:28:16;;;;;;;;;;;27.50;99.90;;;;;;5113729;28;19911;-63
2022/06/24 06:30:41;;;;;;;;;;;27.60;99.90;;;;;;5108347;28;20289;-65
2022/06/24 06:33:08;;;;;;;;;;;27.60;99.90;;;;;;5110172;28;19907;-64
2022/06/24 06:35:34;;;;;;;;;;;27.70;99.90;;;;;;5110971;28;20425;-64
2022/06/24 06:37:59;;;;;;;;;;;27.70;99.90;;;;;;5109359;28;19958;-64
2022/06/24 06:40:26;;;;;;;;;;;27.70;99.90;;;;;;5111883;28;20007;-64
2022/06/24 06:42:55;;;;;;;;;;;27.60;99.90;;;;;;5109433;28;20002;-64
2022/06/24 06:45:21;;;;;;;;;;;27.70;99.90;;;;;;5111558;28;20254;-65
2022/06/24 06:47:47;;;;;;;;;;;27.80;99.90;;;;;;5112056;28;19911;-64
2022/06/24 06:50:13;;;;;;;;;;;27.90;99.90;;;;;;5109084;28;19915;-63
2022/06/24 06:52:39;;;;;;;;;;;27.90;99.90;;;;;;5110308;28;20017;-64
2022/06/24 06:55:05;;;;;;;;;;;27.90;99.90;;;;;;5111746;28;19904;-63
2022/06/24 06:57:31;;;;;;;;;;;28.00;99.90;;;;;;5111698;28;19908;-62
2022/06/24 06:59:57;;;;;;;;;;;28.00;99.90;;;;;;5111707;28;19904;-63
2022/06/24 07:02:22;;;;;;;;;;;28.20;99.90;;;;;;5105487;28;19915;-63
2022/06/24 07:04:48;;;;;;;;;;;28.20;99.90;;;;;;5109348;28;20014;-63
2022/06/24 07:07:14;;;;;;;;;;;28.20;99.90;;;;;;5110855;28;19919;-63
2022/06/24 07:09:39;;;;;;;;;;;28.20;99.90;;;;;;5108734;28;19915;-62
2022/06/24 07:12:05;;;;;;;;;;;28.30;99.90;;;;;;5111512;28;20312;-63
2022/06/24 07:14:31;;;;;;;;;;;28.30;99.90;;;;;;5111731;28;19911;-61
2022/06/24 07:16:56;;;;;;;;;;;28.40;99.90;;;;;;5111599;28;20353;-61
2022/06/24 07:19:23;;;;;;;;;;;28.50;99.90;;;;;;5110217;28;19915;-63
2022/06/24 07:21:49;;;;;;;;;;;28.50;99.90;;;;;;5111369;28;19910;-59
2022/06/24 07:24:15;;;;;;;;;;;28.60;99.90;;;;;;5111612;28;19938;-59
2022/06/24 07:26:41;;;;;;;;;;;28.70;99.90;;;;;;5110280;28;20011;-61
2022/06/24 07:29:06;;;;;;;;;;;28.80;99.90;;;;;;5110410;28;19907;-63
2022/06/24 07:31:32;;;;;;;;;;;28.80;99.90;;;;;;5108576;28;20594;-59
2022/06/24 07:33:58;;;;;;;;;;;28.80;99.90;;;;;;5093288;28;19999;-62
2022/06/24 07:36:23;;;;;;;;;;;28.90;99.90;;;;;;5109074;28;20380;-59
2022/06/24 07:38:49;;;;;;;;;;;29.00;99.90;;;;;;5110931;28;19903;-62
2022/06/24 07:41:14;;;;;;;;;;;28.90;99.90;;;;;;5111105;28;19904;-60
2022/06/24 07:43:40;;;;;;;;;;;28.90;99.90;;;;;;5111067;28;19911;-60
2022/06/24 07:46:08;;;;;;;;;;;29.00;99.90;;;;;;5106945;28;19918;-60
2022/06/24 07:48:35;;;;;;;;;;;29.10;99.90;;;;;;5103266;28;19957;-62
2022/06/24 07:51:14;;;;;;;;;;;29.20;99.90;;;;;;5106474;28;20353;-62
2022/06/24 07:53:40;;;;;;;;;;;29.20;99.90;;;;;;5110871;28;19964;-62
2022/06/24 07:58:50;;;;;;;;;;;29.20;99.90;;;;;;5112801;28;19954;-63
2022/06/24 08:01:16;;;;;;;;;;;29.10;99.90;;;;;;5110062;28;19939;-62
2022/06/24 08:03:42;;;;;;;;;;;29.10;99.90;;;;;;5105622;28;20005;-62
2022/06/24 08:06:07;;;;;;;;;;;29.10;99.90;;;;;;5105892;28;20372;-61
2022/06/24 08:08:33;;;;;;;;;;;29.10;99.90;;;;;;5109525;27;20351;-61
2022/06/24 08:10:59;;;;;;;;;;;28.80;99.90;;;;;;5110934;28;19904;-62
2022/06/24 08:13:24;;;;;;;;;;;28.40;99.90;;;;;;5109214;28;19958;-61
2022/06/24 08:15:50;;;;;;;;;;;28.20;99.90;;;;;;5111072;28;19912;-62
2022/06/24 08:18:17;;;;;;;;;;;28.10;99.90;;;;;;5110913;28;19929;-61
2022/06/24 08:20:42;;;;;;;;;;;27.90;99.90;;;;;;5109581;28;19912;-62
2022/06/24 08:23:08;;;;;;;;;;;27.90;99.90;;;;;;5111228;28;19910;-62
2022/06/24 08:25:33;;;;;;;;;;;27.80;99.90;;;;;;5110853;28;20018;-60
2022/06/24 08:27:59;;;;;;;;;;;27.90;99.90;;;;;;5108458;28;19999;-63
2022/06/24 08:30:25;;;;;;;;;;;28.00;99.90;;;;;;5110612;28;19907;-61
2022/06/24 08:32:51;;;;;;;;;;;28.10;99.90;;;;;;5110321;28;20042;-60
2022/06/24 08:35:16;;;;;;;;;;;28.10;99.90;;;;;;5106543;28;19951;-67
2022/06/24 08:37:42;;;;;;;;;;;27.90;99.90;;;;;;5109138;28;19908;-65
2022/06/24 08:40:08;;;;;;;;;;;27.70;99.90;;;;;;5111469;28;19914;-65
2022/06/24 08:42:37;;;;;;;;;;;27.70;99.90;;;;;;5113071;28;19904;-64
2022/06/24 08:45:02;;;;;;;;;;;27.80;99.90;;;;;;5113889;28;20467;-68
2022/06/24 08:47:28;;;;;;;;;;;27.80;99.90;;;;;;5112559;28;19908;-66
2022/06/24 08:49:54;;;;;;;;;;;27.90;99.90;;;;;;5110790;28;19983;-64
2022/06/24 08:52:20;;;;;;;;;;;28.10;99.90;;;;;;5103185;28;20022;-67
2022/06/24 08:54:46;;;;;;;;;;;28.20;99.90;;;;;;5109818;28;19958;-67
2022/06/24 08:57:12;;;;;;;;;;;28.40;99.90;;;;;;5110595;28;19907;-67
2022/06/24 08:59:38;;;;;;;;;;;28.40;99.90;;;;;;5110483;28;19904;-66
2022/06/24 09:02:04;;;;;;;;;;;28.60;99.90;;;;;;5109645;28;20388;-65
2022/06/24 09:04:32;;;;;;;;;;;28.50;99.90;;;;;;5110294;28;19973;-65
2022/06/24 09:06:57;;;;;;;;;;;28.40;99.90;;;;;;5106726;28;20292;-65
2022/06/24 09:09:24;;;;;;;;;;;28.40;99.90;;;;;;5108685;28;19907;-64
2022/06/24 09:11:54;;;;;;;;;;;28.20;99.90;;;;;;5109963;28;19923;-65
2022/06/24 09:14:20;;;;;;;;;;;28.20;99.90;;;;;;5109941;28;19914;-66
2022/06/24 09:16:46;;;;;;;;;;;28.10;99.90;;;;;;5095814;28;19908;-65
2022/06/24 09:19:15;;;;;;;;;;;28.10;99.90;;;;;;5104166;28;19958;-65
2022/06/24 09:21:41;;;;;;;;;;;28.20;99.90;;;;;;5089164;28;19908;-65
2022/06/24 09:24:07;;;;;;;;;;;28.30;99.90;;;;;;5108002;28;19912;-64
2022/06/24 09:26:37;;;;;;;;;;;28.40;99.90;;;;;;5109500;28;19908;-65
2022/06/24 09:29:04;;;;;;;;;;;28.50;99.90;;;;;;5109261;28;20373;-64
2022/06/24 09:31:31;;;;;;;;;;;28.60;99.90;;;;;;5109726;28;20270;-64
2022/06/24 09:34:05;;;;;;;;;;;28.40;99.90;;;;;;5108905;28;19944;-65
2022/06/24 09:36:33;;;;;;;;;;;28.10;99.90;;;;;;5104525;28;19908;-64
2022/06/24 09:39:00;;;;;;;;;;;28.10;99.90;;;;;;5104850;28;19985;-64
2022/06/24 09:41:26;;;;;;;;;;;28.20;99.90;;;;;;5109997;28;19972;-64
2022/06/24 09:43:52;;;;;;;;;;;28.30;99.90;;;;;;5109583;28;20023;-64
2022/06/24 09:46:20;;;;;;;;;;;28.20;99.90;;;;;;5109573;28;20472;-65
2022/06/24 09:48:46;;;;;;;;;;;28.10;99.90;;;;;;5108624;28;19980;-64
2022/06/24 09:51:11;;;;;;;;;;;28.00;99.90;;;;;;5106756;28;19911;-64
2022/06/24 09:53:40;;;;;;;;;;;28.10;99.90;;;;;;5106499;28;19915;-65
2022/06/24 09:56:09;;;;;;;;;;;28.00;99.90;;;;;;5110565;28;20274;-64
2022/06/24 09:58:35;;;;;;;;;;;28.00;99.90;;;;;;5109145;28;20391;-65
2022/06/24 10:01:01;;;;;;;;;;;28.10;99.90;;;;;;5109211;28;20277;-66
2022/06/24 10:03:27;;;;;;;;;;;28.20;99.90;;;;;;5108207;28;19953;-65
2022/06/24 10:05:54;;;;;;;;;;;28.20;99.90;;;;;;5104800;28;19919;-65
2022/06/24 10:08:23;;;;;;;;;;;28.40;99.90;;;;;;5099951;28;19957;-64
2022/06/24 10:10:49;;;;;;;;;;;28.60;99.90;;;;;;5106182;28;19914;-65
2022/06/24 10:13:25;;;;;;;;;;;28.60;99.90;;;;;;5109591;28;19904;-65
2022/06/24 10:15:51;;;;;;;;;;;28.50;99.90;;;;;;5111921;28;19903;-65
2022/06/24 10:18:19;;;;;;;;;;;28.40;99.90;;;;;;5112582;28;19908;-65
2022/06/24 10:20:45;;;;;;;;;;;28.20;99.90;;;;;;5112750;28;19903;-66
2022/06/24 10:23:30;;;;;;;;;;;28.10;99.90;;;;;;5112898;28;20023;-65
2022/06/24 10:25:55;;;;;;;;;;;28.10;99.90;;;;;;5104560;28;19918;-65
2022/06/24 10:28:21;;;;;;;;;;;28.00;99.90;;;;;;5112645;28;20289;-65
2022/06/24 10:30:47;;;;;;;;;;;28.00;99.90;;;;;;5111621;28;19904;-65
2022/06/24 10:33:13;;;;;;;;;;;28.00;99.90;;;;;;5112851;28;20203;-65
2022/06/24 10:35:55;;;;;;;;;;;27.90;99.90;;;;;;5113190;28;19930;-64
2022/06/24 10:38:22;;;;;;;;;;;27.90;99.90;;;;;;5106881;28;19923;-64
2022/06/24 10:40:47;;;;;;;;;;;28.00;99.90;;;;;;5106074;28;20278;-64
2022/06/24 10:43:13;;;;;;;;;;;28.10;99.90;;;;;;5111418;28;19903;-65
2022/06/24 10:45:39;;;;;;;;;;;28.10;99.90;;;;;;5112413;28;19915;-64
2022/06/24 10:48:04;;;;;;;;;;;28.30;99.90;;;;;;5112568;28;19903;-65
2022/06/24 10:50:30;;;;;;;;;;;28.30;99.90;;;;;;5112756;28;19943;-65
2022/06/24 10:53:00;;;;;;;;;;;28.30;99.90;;;;;;5112010;28;20384;-64
2022/06/24 10:55:30;;;;;;;;;;;28.40;99.90;;;;;;5108253;28;19914;-66
2022/06/24 10:57:57;;;;;;;;;;;28.40;99.90;;;;;;5108329;28;19908;-64
2022/06/24 11:00:39;;;;;;;;;;;28.60;99.90;;;;;;5111877;28;19921;-67
2022/06/24 11:03:04;;;;;;;;;;;28.70;99.90;;;;;;5113935;28;19904;-65
2022/06/24 11:05:32;;;;;;;;;;;28.60;99.90;;;;;;5113637;28;20002;-64
2022/06/24 11:07:57;;;;;;;;;;;28.40;99.90;;;;;;5109090;27;19915;-64
2022/06/24 11:10:24;;;;;;;;;;;28.40;99.90;;;;;;5110625;28;19911;-63
2022/06/24 11:12:54;;;;;;;;;;;28.40;99.90;;;;;;5106627;28;19961;-66
2022/06/24 11:15:36;;;;;;;;;;;28.30;99.90;;;;;;5113224;28;19908;-64
2022/06/24 11:18:08;;;;;;;;;;;28.40;99.90;;;;;;5112963;28;20266;-66
2022/06/24 11:20:35;;;;;;;;;;;28.70;99.90;;;;;;5107717;28;20306;-64
2022/06/24 11:23:05;;;;;;;;;;;28.40;99.90;;;;;;5104624;28;19918;-67
2022/06/24 11:25:32;;;;;;;;;;;28.30;99.90;;;;;;5098722;28;19922;-66
2022/06/24 11:27:57;;;;;;;;;;;28.30;99.90;;;;;;5100304;28;19908;-65
2022/06/24 11:30:23;;;;;;;;;;;28.20;99.90;;;;;;5098878;28;20006;-64
2022/06/24 11:32:56;;;;;;;;;;;28.30;99.90;;;;;;5103604;28;20389;-63
2022/06/24 11:35:22;;;;;;;;;;;28.20;99.90;;;;;;5112319;28;19916;-65
2022/06/24 11:37:48;;;;;;;;;;;28.30;99.90;;;;;;5111542;28;19912;-66
2022/06/24 11:40:21;;;;;;;;;;;28.30;99.90;;;;;;5104346;28;19908;-67
2022/06/24 11:42:46;;;;;;;;;;;28.30;99.90;;;;;;5103109;28;19908;-66
2022/06/24 11:45:12;;;;;;;;;;;28.40;99.90;;;;;;5109856;28;20207;-67
2022/06/24 11:47:38;;;;;;;;;;;28.40;99.90;;;;;;5109349;28;19914;-67
2022/06/24 11:50:04;;;;;;;;;;;28.40;99.90;;;;;;5106052;28;19908;-64
2022/06/24 11:52:43;;;;;;;;;;;28.30;99.90;;;;;;5110055;28;19915;-63
2022/06/24 11:55:22;;;;;;;;;;;28.30;99.90;;;;;;5109402;28;19907;-66
2022/06/24 11:57:51;;;;;;;;;;;28.30;99.90;;;;;;5108586;28;19939;-62
2022/06/24 12:00:17;;;;;;;;;;;28.20;99.90;;;;;;5110531;28;20380;-64
2022/06/24 12:02:43;;;;;;;;;;;28.30;99.90;;;;;;5106414;28;19908;-65
2022/06/24 12:05:08;;;;;;;;;;;28.40;99.90;;;;;;5105625;28;20053;-65
2022/06/24 12:07:34;;;;;;;;;;;28.40;99.90;;;;;;5104393;28;20014;-64
2022/06/24 12:10:00;;;;;;;;;;;28.40;99.90;;;;;;5104041;28;20338;-65
2022/06/24 12:12:25;;;;;;;;;;;28.40;99.90;;;;;;5104685;28;19914;-64
2022/06/24 12:14:55;;;;;;;;;;;28.30;99.90;;;;;;5112191;28;19996;-66
2022/06/24 12:17:20;;;;;;;;;;;28.40;99.90;;;;;;5107115;28;19908;-64
2022/06/24 12:19:56;;;;;;;;;;;28.50;99.90;;;;;;5110963;28;19915;-65
2022/06/24 12:22:22;;;;;;;;;;;28.60;99.90;;;;;;5111978;28;19912;-64
2022/06/24 12:24:58;;;;;;;;;;;28.60;99.90;;;;;;5106636;28;19916;-65
2022/06/24 12:27:30;;;;;;;;;;;28.60;99.90;;;;;;5102767;28;20388;-64
2022/06/24 12:30:08;;;;;;;;;;;28.70;99.90;;;;;;5097392;27;20271;-65
2022/06/24 12:32:49;;;;;;;;;;;28.70;99.90;;;;;;5109156;28;19904;-64
2022/06/24 12:35:14;;;;;;;;;;;28.60;99.90;;;;;;5098813;28;20384;-65
2022/06/24 12:37:51;;;;;;;;;;;28.60;99.90;;;;;;5098540;28;19908;-65
2022/06/24 12:40:23;;;;;;;;;;;28.60;99.90;;;;;;5111280;28;19947;-63
2022/06/24 12:43:03;;;;;;;;;;;28.70;99.90;;;;;;5112359;28;19911;-64
2022/06/24 12:45:33;;;;;;;;;;;28.70;99.90;;;;;;5092092;28;19919;-63
2022/06/24 12:50:43;;;;;;;;;;;28.60;99.90;;;;;;5109127;28;19930;-64
2022/06/24 12:53:10;;;;;;;;;;;28.70;99.90;;;;;;5106872;28;19908;-64
2022/06/24 12:55:36;;;;;;;;;;;28.80;99.90;;;;;;5112452;28;20393;-65
2022/06/24 12:58:02;;;;;;;;;;;28.70;99.90;;;;;;5112132;28;19928;-64
2022/06/24 13:00:28;;;;;;;;;;;28.70;99.90;;;;;;5111705;28;19912;-64
2022/06/24 13:02:55;;;;;;;;;;;28.60;99.90;;;;;;5102970;28;19988;-63
2022/06/24 13:05:22;;;;;;;;;;;28.50;99.90;;;;;;5108014;28;19950;-65
2022/06/24 13:07:48;;;;;;;;;;;28.60;99.90;;;;;;5110121;28;19968;-67
2022/06/24 13:10:14;;;;;;;;;;;28.70;99.90;;;;;;5109686;28;19907;-63
2022/06/24 13:12:40;;;;;;;;;;;28.70;99.90;;;;;;5107270;28;19907;-64
2022/06/24 13:15:06;;;;;;;;;;;28.80;99.90;;;;;;5104035;28;19957;-63
2022/06/24 13:17:34;;;;;;;;;;;28.90;99.90;;;;;;5110452;28;19960;-62
2022/06/24 13:20:00;;;;;;;;;;;28.90;99.90;;;;;;5110108;28;20352;-65
2022/06/24 13:22:25;;;;;;;;;;;28.80;99.90;;;;;;5103333;28;19915;-64
2022/06/24 13:24:51;;;;;;;;;;;28.60;99.90;;;;;;5111637;28;20273;-65
2022/06/24 13:27:17;;;;;;;;;;;28.50;99.90;;;;;;5104156;28;20352;-65
2022/06/24 13:29:43;;;;;;;;;;;28.50;99.90;;;;;;5099923;28;19935;-65
2022/06/24 13:32:08;;;;;;;;;;;28.70;99.90;;;;;;5107951;28;19908;-64
2022/06/24 13:34:34;;;;;;;;;;;28.60;99.90;;;;;;5110798;28;20373;-63
2022/06/24 13:36:59;;;;;;;;;;;28.80;99.90;;;;;;5107612;28;19908;-63
2022/06/24 13:39:25;;;;;;;;;;;28.90;99.90;;;;;;5110633;28;19962;-65
2022/06/24 13:41:51;;;;;;;;;;;28.90;99.90;;;;;;5108326;28;19919;-65
2022/06/24 13:44:17;;;;;;;;;;;29.10;99.90;;;;;;5105785;28;20478;-64
2022/06/24 13:46:43;;;;;;;;;;;28.80;99.90;;;;;;5105418;28;19922;-64
2022/06/24 13:49:09;;;;;;;;;;;28.70;99.90;;;;;;5111056;28;19967;-63
2022/06/24 13:51:34;;;;;;;;;;;28.60;99.90;;;;;;5096523;28;19904;-64
2022/06/24 13:54:00;;;;;;;;;;;28.40;99.90;;;;;;5113799;28;19903;-65
2022/06/24 13:56:26;;;;;;;;;;;28.50;99.90;;;;;;5113627;28;19903;-64
2022/06/24 13:58:51;;;;;;;;;;;28.60;99.90;;;;;;5109664;28;19919;-64
2022/06/24 14:01:18;;;;;;;;;;;28.80;99.90;;;;;;5113989;28;19908;-64
2022/06/24 14:03:43;;;;;;;;;;;28.60;99.90;;;;;;5114568;28;20032;-64
2022/06/24 14:06:09;;;;;;;;;;;28.60;99.90;;;;;;5114650;28;20002;-63
2022/06/24 14:08:35;;;;;;;;;;;28.60;99.90;;;;;;5114665;28;19994;-64
2022/06/24 14:11:01;;;;;;;;;;;28.60;99.90;;;;;;5114461;28;20413;-63
2022/06/24 14:13:26;;;;;;;;;;;28.70;99.90;;;;;;5111753;28;19907;-62
2022/06/24 14:15:52;;;;;;;;;;;28.80;99.90;;;;;;5110267;28;19920;-64
2022/06/24 14:18:18;;;;;;;;;;;28.90;99.90;;;;;;5114477;28;19911;-64
2022/06/24 14:20:43;;;;;;;;;;;28.90;99.90;;;;;;5114977;28;19911;-64
2022/06/24 14:25:53;;;;;;;;;;;28.90;99.90;;;;;;5114569;28;20006;-64
2022/06/24 14:28:19;;;;;;;;;;;28.70;99.90;;;;;;5115534;28;19951;-62